Time;durP1;ratioP1;P1;durP2;ratioP2;P2;SDS_P1;SDS_P2;PMS_P1;PMS_P2;Temp;Humidity;BMP_temperature;BMP_pressure;BME280_temperature;BME280_humidity;BME280_pressure;Samples;Min_cycle;Max_cycle;Signal;HPM_P1;HPM_P2
2022/11/14 00:00:45;;;;;;;;;;;;;;;-144.99;98.85;52429.75;5072138;28;20228;-72
2022/11/14 00:03:13;;;;;;;;;;;;;;;-144.99;100.00;52484.78;5077390;28;20005;-72
2022/11/14 00:05:40;;;;;;;;;;;;;;;-144.99;99.28;52501.09;5074989;28;19979;-72
2022/11/14 00:08:07;;;;;;;;;;;;;;;-144.99;99.06;52468.47;5072224;28;20330;-70
2022/11/14 00:10:34;;;;;;;;;;;;;;;-144.99;98.96;52456.25;5071401;28;19964;-71
2022/11/14 00:13:00;;;;;;;;;;;;;;;-144.99;97.92;52476.63;5064080;28;20389;-71
2022/11/14 00:15:26;;;;;;;;;;;;;;;-144.99;98.46;52460.31;5061539;28;20546;-71
2022/11/14 00:17:53;;;;;;;;;;;;;;;-144.99;98.02;52439.94;5063972;28;19952;-71
2022/11/14 00:20:21;;;;;;;;;;;;;;;-144.99;98.07;52490.91;5065805;28;20395;-70
2022/11/14 00:22:47;;;;;;;;;;;;;;;-144.99;97.69;52497.00;5066191;28;19987;-74
2022/11/14 00:25:14;;;;;;;;;;;;;;;-144.99;99.81;52482.75;5066845;28;20385;-74
2022/11/14 00:27:40;;;;;;;;;;;;;;;-144.99;100.00;52456.25;5065858;28;20048;-74
2022/11/14 00:30:07;;;;;;;;;;;;;;;-144.99;100.00;52494.97;5051419;28;20801;-74
2022/11/14 00:32:34;;;;;;;;;;;;;;;-144.99;100.00;52464.41;5066416;28;19966;-74
2022/11/14 00:35:00;;;;;;;;;;;;;;;-144.99;100.00;52490.91;5065662;28;19960;-78
2022/11/14 00:37:29;;;;;;;;;;;;;;;-144.99;100.00;52476.63;5066496;28;19968;-77
2022/11/14 00:39:56;;;;;;;;;;;;;;;-144.99;100.00;52480.72;5065485;28;20080;-77
2022/11/14 00:42:22;;;;;;;;;;;;;;;-144.99;100.00;52511.28;5066878;28;19994;-75
2022/11/14 00:44:49;;;;;;;;;;;;;;;-144.99;100.00;52517.41;5064802;28;19940;-77
2022/11/14 00:47:15;;;;;;;;;;;;;;;-144.99;100.00;52460.31;5065141;28;19988;-76
2022/11/14 00:49:42;;;;;;;;;;;;;;;-144.99;100.00;52517.41;5052262;28;19980;-76
2022/11/14 00:52:08;;;;;;;;;;;;;;;-144.99;100.00;52468.47;5065500;28;20008;-76
2022/11/14 00:54:36;;;;;;;;;;;;;;;-144.99;100.00;52501.09;5066501;28;19966;-74
2022/11/14 00:57:03;;;;;;;;;;;;;;;-144.99;100.00;52460.31;5064068;28;19986;-75
2022/11/14 00:59:29;;;;;;;;;;;;;;;-144.99;100.00;52464.41;5064867;28;20707;-75
2022/11/14 01:01:56;;;;;;;;;;;;;;;-144.99;100.00;52505.16;5065207;28;20157;-74
2022/11/14 01:04:22;;;;;;;;;;;;;;;-144.99;100.00;52503.13;5065110;28;19943;-74
2022/11/14 01:06:49;;;;;;;;;;;;;;;-144.99;100.00;52525.56;5065027;28;20015;-75
2022/11/14 01:09:16;;;;;;;;;;;;;;;-144.99;100.00;52476.63;5061488;28;19984;-74
2022/11/14 01:11:43;;;;;;;;;;;;;;;-144.99;100.00;52484.78;5065814;28;19963;-75
2022/11/14 01:14:10;;;;;;;;;;;;;;;-144.99;100.00;52501.09;5060847;28;19969;-74
2022/11/14 01:16:36;;;;;;;;;;;;;;;-144.99;100.00;52439.94;5067681;28;20043;-74
2022/11/14 01:19:03;;;;;;;;;;;;;;;-144.99;100.00;52480.72;5068461;28;20018;-74
2022/11/14 01:21:30;;;;;;;;;;;;;;;-144.99;100.00;52488.84;5055867;28;20255;-74
2022/11/14 01:23:56;;;;;;;;;;;;;;;-144.99;100.00;52488.84;5070052;28;19951;-75
2022/11/14 01:26:23;;;;;;;;;;;;;;;-144.99;100.00;52454.22;5068101;28;20455;-75
2022/11/14 01:28:51;;;;;;;;;;;;;;;-144.99;100.00;52484.78;5067739;28;20014;-74
2022/11/14 01:31:18;;;;;;;;;;;;;;;-144.99;100.00;52464.41;5060796;28;20053;-75
2022/11/14 01:33:48;;;;;;;;;;;;;;;-144.99;100.00;52456.25;5055349;28;20045;-72
2022/11/14 01:36:14;;;;;;;;;;;;;;;-144.99;100.00;52488.84;5068432;28;20012;-72
2022/11/14 01:38:41;;;;;;;;;;;;;;;-144.99;100.00;52464.41;5067639;28;20266;-73
2022/11/14 01:41:07;;;;;;;;;;;;;;;-144.99;100.00;52470.50;5064662;28;19966;-72
2022/11/14 01:43:39;;;;;;;;;;;;;;;-144.99;100.00;52499.06;4892918;28;10000398;-72
2022/11/14 01:46:09;;;;;;;;;;;;;;;-144.99;100.00;52501.09;5059764;28;19997;-72
2022/11/14 01:48:38;;;;;;;;;;;;;;;-144.99;100.00;52480.72;5067866;28;20460;-72
2022/11/14 01:51:11;;;;;;;;;;;;;;;-144.99;100.00;52486.81;5068036;28;20504;-74
2022/11/14 01:53:38;;;;;;;;;;;;;;;-144.99;100.00;52470.50;5060872;28;19960;-74
2022/11/14 01:56:06;;;;;;;;;;;;;;;-144.99;100.00;52484.78;5085522;28;20359;-73
2022/11/14 01:58:33;;;;;;;;;;;;;;;-144.99;100.00;52452.16;5087927;28;20349;-73
2022/11/14 02:01:00;;;;;;;;;;;;;;;-144.99;100.00;52509.25;5081509;28;19974;-73
2022/11/14 02:03:28;;;;;;;;;;;;;;;-144.99;100.00;52492.94;5071047;28;20039;-73
2022/11/14 02:05:55;;;;;;;;;;;;;;;-144.99;100.00;52454.22;5070255;28;20045;-73
2022/11/14 02:08:22;;;;;;;;;;;;;;;-144.99;100.00;52497.00;5069848;28;20445;-73
2022/11/14 02:10:49;;;;;;;;;;;;;;;-144.99;100.00;52497.00;5071070;28;20015;-73
2022/11/14 02:13:15;;;;;;;;;;;;;;;-144.99;100.00;52480.72;5068346;28;20054;-75
2022/11/14 02:15:42;;;;;;;;;;;;;;;-144.99;100.00;52501.09;5060767;28;20010;-74
2022/11/14 02:18:08;;;;;;;;;;;;;;;-144.99;100.00;52494.97;5065437;28;19944;-72
2022/11/14 02:20:41;;;;;;;;;;;;;;;-144.99;100.00;52509.25;5065202;28;20437;-72
2022/11/14 02:23:08;;;;;;;;;;;;;;;-144.99;100.00;52509.25;5071265;28;19949;-71
2022/11/14 02:25:35;;;;;;;;;;;;;;;-144.99;100.00;52492.94;5079354;28;19947;-72
2022/11/14 02:28:02;;;;;;;;;;;;;;;-144.99;100.00;52505.16;5083767;28;19983;-73
2022/11/14 02:30:29;;;;;;;;;;;;;;;-144.99;100.00;52505.16;5079407;28;19957;-73
2022/11/14 02:32:55;;;;;;;;;;;;;;;-144.99;100.00;52501.09;5058664;28;19946;-73
2022/11/14 02:35:22;;;;;;;;;;;;;;;-144.99;100.00;52497.00;5068926;28;19980;-74
2022/11/14 02:37:49;;;;;;;;;;;;;;;-144.99;100.00;52456.25;5067231;28;19987;-73
2022/11/14 02:40:16;;;;;;;;;;;;;;;-144.99;100.00;52472.56;5062817;28;20266;-74
2022/11/14 02:42:43;;;;;;;;;;;;;;;-144.99;100.00;52507.19;5063852;28;20006;-73
2022/11/14 02:45:12;;;;;;;;;;;;;;;-144.99;100.00;52476.63;5059710;28;20328;-73
2022/11/14 02:47:38;;;;;;;;;;;;;;;-144.99;100.00;52501.09;5053443;28;20035;-73
2022/11/14 02:50:05;;;;;;;;;;;;;;;-144.99;100.00;52499.06;5062842;28;20301;-74
2022/11/14 02:52:32;;;;;;;;;;;;;;;-144.99;100.00;52521.47;5066692;28;20024;-73
2022/11/14 02:55:00;;;;;;;;;;;;;;;-144.99;100.00;52505.16;5071215;28;20007;-73
2022/11/14 02:57:26;;;;;;;;;;;;;;;-144.99;100.00;52488.84;5070592;28;19991;-72
2022/11/14 02:59:53;;;;;;;;;;;;;;;-144.99;100.00;52488.84;5062664;28;20003;-74
2022/11/14 03:02:19;;;;;;;;;;;;;;;-144.99;100.00;52456.25;5069856;28;19925;-73
2022/11/14 03:04:45;;;;;;;;;;;;;;;-144.99;100.00;52488.84;5069966;28;19954;-72
2022/11/14 03:07:12;;;;;;;;;;;;;;;-144.99;100.00;52472.56;5070726;28;20004;-74
2022/11/14 03:09:38;;;;;;;;;;;;;;;-144.99;100.00;52511.28;5069743;28;20344;-74
2022/11/14 03:12:07;;;;;;;;;;;;;;;-144.99;100.00;52497.00;5056740;28;19959;-74
2022/11/14 03:14:33;;;;;;;;;;;;;;;-144.99;100.00;52452.16;5063974;28;20034;-74
2022/11/14 03:17:00;;;;;;;;;;;;;;;-144.99;100.00;52505.16;5058793;28;20041;-73
2022/11/14 03:19:26;;;;;;;;;;;;;;;-144.99;100.00;52452.16;5065647;28;19937;-73
2022/11/14 03:21:52;;;;;;;;;;;;;;;-144.99;100.00;52472.56;5066150;28;20217;-73
2022/11/14 03:24:19;;;;;;;;;;;;;;;-144.99;100.00;52480.72;5070458;28;19997;-73
2022/11/14 03:26:46;;;;;;;;;;;;;;;-144.99;100.00;52488.84;5069962;28;19949;-73
2022/11/14 03:29:13;;;;;;;;;;;;;;;-144.99;100.00;52525.56;5063847;28;19997;-72
2022/11/14 03:31:40;;;;;;;;;;;;;;;-144.99;100.00;52448.09;5061064;28;19925;-75
2022/11/14 03:34:06;;;;;;;;;;;;;;;-144.99;100.00;52484.78;5053008;28;20424;-76
2022/11/14 03:36:34;;;;;;;;;;;;;;;-144.99;100.00;52484.78;5052120;28;19953;-76
2022/11/14 03:39:00;;;;;;;;;;;;;;;-144.99;100.00;52468.47;5070194;28;19979;-72
2022/11/14 03:41:27;;;;;;;;;;;;;;;-144.99;100.00;52525.56;5072003;28;19963;-72
2022/11/14 03:43:54;;;;;;;;;;;;;;;-144.99;100.00;52519.44;5056936;28;19997;-78
2022/11/14 03:46:22;;;;;;;;;;;;;;;-144.99;100.00;52497.00;5073075;28;19949;-78
2022/11/14 03:48:48;;;;;;;;;;;;;;;-144.99;100.00;52492.94;5071502;28;19943;-73
2022/11/14 03:51:15;;;;;;;;;;;;;;;-144.99;100.00;52468.47;5071005;28;20010;-78
2022/11/14 03:53:41;;;;;;;;;;;;;;;-144.99;100.00;52501.09;5061437;28;19999;-73
2022/11/14 03:56:08;;;;;;;;;;;;;;;-144.99;100.00;52480.72;5073648;28;20379;-77
2022/11/14 03:58:34;;;;;;;;;;;;;;;-144.99;100.00;52415.47;5079362;28;19944;-74
2022/11/14 04:01:02;;;;;;;;;;;;;;;-144.99;100.00;52476.63;5085692;28;19960;-73
2022/11/14 04:03:30;;;;;;;;;;;;;;;-144.99;100.00;52484.78;5072627;28;19941;-73
2022/11/14 04:05:56;;;;;;;;;;;;;;;-144.99;100.00;52460.31;5069326;28;20443;-73
2022/11/14 04:08:23;;;;;;;;;;;;;;;-144.99;100.00;52494.97;5069866;28;20045;-73
2022/11/14 04:10:49;;;;;;;;;;;;;;;-144.99;100.00;52497.00;5069101;28;19955;-74
2022/11/14 04:13:16;;;;;;;;;;;;;;;-144.99;100.00;52484.78;5079996;28;20107;-74
2022/11/14 04:15:42;;;;;;;;;;;;;;;-144.99;100.00;52513.31;5081137;28;19962;-74
2022/11/14 04:18:09;;;;;;;;;;;;;;;-144.99;100.00;52482.75;5088864;28;19950;-73
2022/11/14 04:20:37;;;;;;;;;;;;;;;-144.99;100.00;52505.16;5087166;28;19951;-74
2022/11/14 04:23:03;;;;;;;;;;;;;;;-144.99;100.00;52505.16;5079597;28;19986;-73
2022/11/14 04:25:30;;;;;;;;;;;;;;;-144.99;100.00;52488.84;5070115;28;19974;-73
2022/11/14 04:27:56;;;;;;;;;;;;;;;-144.99;100.00;52509.25;5065034;28;20355;-74
2022/11/14 04:30:23;;;;;;;;;;;;;;;-144.99;100.00;52509.25;5068048;28;20055;-74
2022/11/14 04:32:49;;;;;;;;;;;;;;;-144.99;100.00;52472.56;5067797;28;20400;-75
2022/11/14 04:35:16;;;;;;;;;;;;;;;-144.99;100.00;52492.94;5067605;28;19996;-75
2022/11/14 04:37:44;;;;;;;;;;;;;;;-144.99;100.00;52509.25;5068955;28;19993;-73
2022/11/14 04:40:11;;;;;;;;;;;;;;;-144.99;100.00;52525.56;5067685;28;19943;-74
2022/11/14 04:42:37;;;;;;;;;;;;;;;-144.99;100.00;52486.81;5068097;28;19972;-74
2022/11/14 04:45:04;;;;;;;;;;;;;;;-144.99;100.00;52456.25;5065949;28;20025;-74
2022/11/14 04:47:30;;;;;;;;;;;;;;;-144.99;100.00;52501.09;5059542;28;19935;-74
2022/11/14 04:49:57;;;;;;;;;;;;;;;-144.99;100.00;52497.00;5063605;28;19953;-74
2022/11/14 04:52:23;;;;;;;;;;;;;;;-144.99;100.00;52513.31;5055482;28;20004;-74
2022/11/14 04:54:51;;;;;;;;;;;;;;;-144.99;100.00;52472.56;5071619;28;20418;-74
2022/11/14 04:57:18;;;;;;;;;;;;;;;-144.99;100.00;52480.72;5064912;28;20050;-72
2022/11/14 04:59:44;;;;;;;;;;;;;;;-144.99;100.00;52509.25;5071059;28;19977;-73
2022/11/14 05:02:11;;;;;;;;;;;;;;;-144.99;100.00;52464.41;5070461;28;19928;-72
2022/11/14 05:04:37;;;;;;;;;;;;;;;-144.99;100.00;52480.72;5071546;28;20221;-73
2022/11/14 05:07:04;;;;;;;;;;;;;;;-144.99;100.00;52515.34;5066961;28;20414;-73
2022/11/14 05:09:30;;;;;;;;;;;;;;;-144.99;100.00;52513.31;5064206;28;20005;-72
2022/11/14 05:11:58;;;;;;;;;;;;;;;-144.99;100.00;52509.25;5065842;28;19997;-72
2022/11/14 05:14:25;;;;;;;;;;;;;;;-144.99;100.00;52521.47;5065480;28;20436;-73
2022/11/14 05:16:51;;;;;;;;;;;;;;;-144.99;100.00;52488.84;5092762;22;20046;-75
2022/11/14 05:19:18;;;;;;;;;;;;;;;-144.99;100.00;52464.41;5102090;28;19991;-66
2022/11/14 05:21:44;;;;;;;;;;;;;;;-144.99;100.00;52503.13;5099665;28;19956;-69
2022/11/14 05:24:11;;;;;;;;;;;;;;;-144.99;100.00;52474.59;5102576;28;20047;-71
2022/11/14 05:26:38;;;;;;;;;;;;;;;-144.99;100.00;52484.78;5102123;28;19934;-69
2022/11/14 05:29:06;;;;;;;;;;;;;;;-144.99;100.00;52501.09;5105469;28;19952;-74
2022/11/14 05:31:33;;;;;;;;;;;;;;;-144.99;100.00;52482.75;5106025;28;20018;-70
2022/11/14 05:33:59;;;;;;;;;;;;;;;-144.99;100.00;52517.41;5109615;28;19991;-70
2022/11/14 05:36:25;;;;;;;;;;;;;;;-144.99;100.00;52490.91;5102748;28;20449;-69
2022/11/14 05:38:52;;;;;;;;;;;;;;;-144.99;100.00;52517.41;5100496;28;20032;-68
2022/11/14 05:41:19;;;;;;;;;;;;;;;-144.99;100.00;52488.84;5096806;28;20019;-72
2022/11/14 05:43:46;;;;;;;;;;;;;;;-144.99;100.00;52509.25;5109773;28;19973;-63
2022/11/14 05:46:15;;;;;;;;;;;;;;;-144.99;100.00;52492.94;5102796;28;19938;-65
2022/11/14 05:48:42;;;;;;;;;;;;;;;-144.99;100.00;52484.78;5108413;28;20029;-65
2022/11/14 05:51:10;;;;;;;;;;;;;;;-144.99;100.00;52492.94;5104369;28;19979;-65
2022/11/14 05:53:37;;;;;;;;;;;;;;;-144.99;100.00;52492.94;5102202;28;19935;-72
2022/11/14 05:56:04;;;;;;;;;;;;;;;-144.99;100.00;52480.72;5107178;28;19969;-71
2022/11/14 05:58:31;;;;;;;;;;;;;;;-144.99;100.00;52529.63;5101199;28;19941;-70
2022/11/14 06:01:09;;;;;;;;;;;;;;;-144.99;100.00;52523.50;4748170;28;10000254;-72
2022/11/14 06:03:37;;;;;;;;;;;;;;;-144.99;100.00;52509.25;5087100;28;19977;-71
2022/11/14 06:06:05;;;;;;;;;;;;;;;-144.99;100.00;52464.41;5103265;28;19948;-71
2022/11/14 06:08:32;;;;;;;;;;;;;;;-144.99;100.00;52501.09;5106219;28;20049;-71
2022/11/14 06:11:02;;;;;;;;;;;;;;;-144.99;100.00;52494.97;5100085;28;19980;-71
2022/11/14 06:13:28;;;;;;;;;;;;;;;-144.99;100.00;52476.63;5092692;28;19955;-70
2022/11/14 06:15:58;;;;;;;;;;;;;;;-144.99;100.00;52474.59;5102930;28;20006;-70
2022/11/14 06:18:24;;;;;;;;;;;;;;;-144.99;100.00;52470.50;5105530;28;19948;-70
2022/11/14 06:20:52;;;;;;;;;;;;;;;-144.99;100.00;52507.19;5097787;28;19999;-70
2022/11/14 06:23:19;;;;;;;;;;;;;;;-144.99;100.00;52499.06;5104519;28;20030;-70
2022/11/14 06:25:45;;;;;;;;;;;;;;;-144.99;100.00;52470.50;5107579;28;20076;-70
2022/11/14 06:28:12;;;;;;;;;;;;;;;-144.99;100.00;52492.94;5104543;28;20026;-71
2022/11/14 06:30:40;;;;;;;;;;;;;;;-144.99;100.00;52484.78;5098533;28;20383;-71
2022/11/14 06:33:06;;;;;;;;;;;;;;;-144.99;100.00;52517.41;5100605;28;20418;-71
2022/11/14 06:35:34;;;;;;;;;;;;;;;-144.99;100.00;52497.00;5102744;28;19968;-71
2022/11/14 06:38:02;;;;;;;;;;;;;;;-144.99;100.00;52509.25;5100833;28;19923;-72
2022/11/14 06:40:28;;;;;;;;;;;;;;;-144.99;100.00;52470.50;5105853;28;20021;-72
2022/11/14 06:42:55;;;;;;;;;;;;;;;-144.99;100.00;52476.63;5104036;28;19935;-71
2022/11/14 06:45:22;;;;;;;;;;;;;;;-144.99;100.00;52499.06;5101564;28;19951;-71
2022/11/14 06:47:48;;;;;;;;;;;;;;;-144.99;100.00;52484.78;5098828;28;20018;-72
2022/11/14 06:50:15;;;;;;;;;;;;;;;-144.99;100.00;52492.94;5104783;28;20034;-70
2022/11/14 06:52:41;;;;;;;;;;;;;;;-144.99;100.00;52466.44;5099230;28;19938;-71
2022/11/14 06:55:09;;;;;;;;;;;;;;;-144.99;100.00;52480.72;5099586;28;20013;-71
2022/11/14 06:57:36;;;;;;;;;;;;;;;-144.99;100.00;52464.41;5105674;28;19998;-70
2022/11/14 07:00:03;;;;;;;;;;;;;;;-144.99;100.00;52480.72;5103433;28;19981;-71
2022/11/14 07:02:30;;;;;;;;;;;;;;;-144.99;100.00;52480.72;5094697;28;19940;-72
2022/11/14 07:04:56;;;;;;;;;;;;;;;-144.99;100.00;52476.63;5104735;28;20017;-72
2022/11/14 07:07:24;;;;;;;;;;;;;;;-144.99;100.00;52488.84;5106738;28;19962;-72
2022/11/14 07:09:50;;;;;;;;;;;;;;;-144.99;100.00;52472.56;5105722;28;19943;-74
2022/11/14 07:12:18;;;;;;;;;;;;;;;-144.99;100.00;52448.09;5101676;28;19958;-71
2022/11/14 07:14:44;;;;;;;;;;;;;;;-144.99;100.00;52501.09;5098213;28;20079;-73
2022/11/14 07:17:11;;;;;;;;;;;;;;;-144.99;100.00;52505.16;5103741;28;20012;-72
2022/11/14 07:19:37;;;;;;;;;;;;;;;-144.99;100.00;52497.00;5100329;28;20068;-71
2022/11/14 07:22:04;;;;;;;;;;;;;;;-144.99;100.00;52523.50;5101214;28;19931;-71
2022/11/14 07:24:31;;;;;;;;;;;;;;;-144.99;100.00;52484.78;5096701;28;20377;-72
2022/11/14 07:26:57;;;;;;;;;;;;;;;-144.99;100.00;52472.56;5104266;28;19997;-72
2022/11/14 07:29:25;;;;;;;;;;;;;;;-144.99;100.00;52452.16;5100850;28;20204;-71
2022/11/14 07:31:51;;;;;;;;;;;;;;;-144.99;100.00;52484.78;5103692;28;19961;-72
2022/11/14 07:34:18;;;;;;;;;;;;;;;-144.99;100.00;52494.97;5101092;28;20370;-72
2022/11/14 07:36:44;;;;;;;;;;;;;;;-144.99;100.00;52480.72;5104097;28;20007;-71
2022/11/14 07:39:11;;;;;;;;;;;;;;;-144.99;100.00;52492.94;5104296;28;19951;-71
2022/11/14 07:41:39;;;;;;;;;;;;;;;-144.99;100.00;52482.75;5103201;28;20327;-71
2022/11/14 07:44:06;;;;;;;;;;;;;;;-144.99;100.00;52509.25;5100014;28;19953;-72
2022/11/14 07:46:34;;;;;;;;;;;;;;;-144.99;100.00;52488.84;5106452;28;19993;-71
2022/11/14 07:49:00;;;;;;;;;;;;;;;-144.99;100.00;52505.16;5105335;28;20376;-72
2022/11/14 07:51:27;;;;;;;;;;;;;;;-144.99;100.00;52501.09;5103707;28;20029;-73
2022/11/14 07:53:53;;;;;;;;;;;;;;;-144.99;100.00;52529.63;5100333;28;20007;-71
2022/11/14 07:56:21;;;;;;;;;;;;;;;-144.99;100.00;52505.16;5104786;28;20006;-72
2022/11/14 07:58:47;;;;;;;;;;;;;;;-144.99;100.00;52505.16;5103880;28;20364;-72
2022/11/14 08:01:14;;;;;;;;;;;;;;;-144.99;100.00;52513.31;5096206;28;19966;-72
2022/11/14 08:03:42;;;;;;;;;;;;;;;-144.99;100.00;52492.94;5101899;28;20000;-72
2022/11/14 08:06:10;;;;;;;;;;;;;;;-144.99;100.00;52513.31;5103365;28;19949;-71
2022/11/14 08:08:36;;;;;;;;;;;;;;;-144.99;100.00;52503.13;5103391;28;20465;-72
2022/11/14 08:11:03;;;;;;;;;;;;;;;-144.99;100.00;52497.00;5103083;28;20084;-71
2022/11/14 08:13:30;;;;;;;;;;;;;;;-144.99;100.00;52499.06;5099930;28;20019;-71
2022/11/14 08:15:58;;;;;;;;;;;;;;;-144.99;100.00;52509.25;5029008;28;1846655;-71
2022/11/14 08:18:25;;;;;;;;;;;;;;;-144.99;100.00;52501.09;5084613;28;19928;-71
2022/11/14 08:20:56;;;;;;;;;;;;;;;-144.99;100.00;52501.09;5104239;28;20341;-71
2022/11/14 08:23:22;;;;;;;;;;;;;;;-144.99;100.00;52490.91;5103992;28;19946;-71
2022/11/14 08:25:49;;;;;;;;;;;;;;;-144.99;100.00;52488.84;5096413;28;20325;-71
2022/11/14 08:28:15;;;;;;;;;;;;;;;-144.99;100.00;52511.28;5100372;28;20048;-70
2022/11/14 08:30:42;;;;;;;;;;;;;;;-144.99;100.00;52492.94;5101557;28;20453;-71
2022/11/14 08:33:09;;;;;;;;;;;;;;;-144.99;100.00;52472.56;5108521;28;20021;-71
2022/11/14 08:35:35;;;;;;;;;;;;;;;-144.99;100.00;52480.72;5101868;28;20058;-72
2022/11/14 08:38:03;;;;;;;;;;;;;;;-144.99;100.00;52505.16;5095238;28;19942;-72
2022/11/14 08:40:30;;;;;;;;;;;;;;;-144.99;100.00;52484.78;5104000;28;20321;-71
2022/11/14 08:43:00;;;;;;;;;;;;;;;-144.99;100.00;52484.78;5106632;28;20465;-72
2022/11/14 08:45:27;;;;;;;;;;;;;;;-144.99;100.00;52521.47;5091541;28;19945;-72
2022/11/14 08:47:54;;;;;;;;;;;;;;;-144.99;100.00;52492.94;5096958;28;20220;-72
2022/11/14 08:50:21;;;;;;;;;;;;;;;-144.99;100.00;52484.78;5107681;28;20621;-72
2022/11/14 08:52:51;;;;;;;;;;;;;;;-144.99;100.00;52468.47;5125069;28;20047;-72
2022/11/14 08:55:19;;;;;;;;;;;;;;;-144.99;100.00;52497.00;5122019;28;19932;-72
2022/11/14 08:57:46;;;;;;;;;;;;;;;-144.99;100.00;52497.00;5129671;28;19934;-72
2022/11/14 09:00:13;;;;;;;;;;;;;;;-144.99;100.00;52503.13;5131159;28;19941;-72
2022/11/14 09:02:40;;;;;;;;;;;;;;;-144.99;100.00;52533.69;5134002;28;19949;-72
2022/11/14 09:05:07;;;;;;;;;;;;;;;-144.99;100.00;52513.31;5130002;28;19946;-72
2022/11/14 09:07:33;;;;;;;;;;;;;;;-144.99;100.00;52545.94;5114178;27;19938;-71
2022/11/14 09:10:00;;;;;;;;;;;;;;;-144.99;100.00;52488.84;5122423;28;19926;-71
2022/11/14 09:12:28;;;;;;;;;;;;;;;-144.99;100.00;52515.34;5133370;28;20051;-72
2022/11/14 09:14:54;;;;;;;;;;;;;;;-144.99;100.00;52497.00;5121302;28;19941;-72
2022/11/14 09:17:21;;;;;;;;;;;;;;;-144.99;100.00;52488.84;5124391;28;19977;-73
2022/11/14 09:19:47;;;;;;;;;;;;;;;-144.99;100.00;52525.56;5130846;28;19976;-72
2022/11/14 09:22:14;;;;;;;;;;;;;;;-144.99;100.00;52476.63;5122649;28;19971;-71
2022/11/14 09:24:40;;;;;;;;;;;;;;;-144.99;100.00;52492.94;5109534;28;20525;-71
2022/11/14 09:27:07;;;;;;;;;;;;;;;-144.99;100.00;52488.84;5102617;28;19956;-70
2022/11/14 09:29:34;;;;;;;;;;;;;;;-144.99;100.00;52507.19;5097183;28;19981;-71
2022/11/14 09:32:01;;;;;;;;;;;;;;;-144.99;100.00;52509.25;5104545;28;20303;-71
2022/11/14 09:34:27;;;;;;;;;;;;;;;-144.99;100.00;52513.31;5106090;28;20010;-71
2022/11/14 09:36:54;;;;;;;;;;;;;;;-144.99;100.00;52513.31;5104686;28;19963;-71
2022/11/14 09:39:20;;;;;;;;;;;;;;;-144.99;100.00;52505.16;5095642;28;20388;-71
2022/11/14 09:41:57;;;;;;;;;;;;;;;-144.99;100.00;52492.94;5105356;28;20054;-71
2022/11/14 09:44:41;;;;;;;;;;;;;;;-144.99;100.00;52497.00;5106010;28;19971;-71
2022/11/14 09:47:08;;;;;;;;;;;;;;;-144.99;100.00;52488.84;5106878;28;20118;-71
2022/11/14 09:49:36;;;;;;;;;;;;;;;-144.99;100.00;52513.31;5099941;28;20451;-71
2022/11/14 09:52:08;;;;;;;;;;;;;;;-144.99;100.00;52529.63;5108178;28;20026;-71
2022/11/14 09:54:40;;;;;;;;;;;;;;;-144.99;100.00;52513.31;5102182;28;19974;-71
2022/11/14 09:57:13;;;;;;;;;;;;;;;-144.99;100.00;52464.41;5106119;28;20031;-71
2022/11/14 09:59:41;;;;;;;;;;;;;;;-144.99;100.00;52460.31;5103338;28;20129;-72
2022/11/14 10:02:16;;;;;;;;;;;;;;;-144.99;99.97;52497.00;5105842;28;20134;-71
2022/11/14 10:04:49;;;;;;;;;;;;;;;-144.99;100.00;52492.94;5103881;28;20449;-71
2022/11/14 10:07:21;;;;;;;;;;;;;;;-144.99;99.93;52468.47;5105724;28;20091;-71
2022/11/14 10:09:54;;;;;;;;;;;;;;;-144.99;99.72;52464.41;5098035;28;20405;-72
2022/11/14 10:12:23;;;;;;;;;;;;;;;-144.99;99.64;52472.56;5102312;28;19967;-71
2022/11/14 10:15:02;;;;;;;;;;;;;;;-144.99;99.49;52492.94;5103936;28;20184;-71
2022/11/14 10:17:38;;;;;;;;;;;;;;;-144.99;99.83;52484.78;5090684;28;20641;-71
2022/11/14 10:20:12;;;;;;;;;;;;;;;-144.99;98.94;52488.84;5101589;28;19950;-71
2022/11/14 10:22:45;;;;;;;;;;;;;;;-144.99;99.20;52497.00;5093876;28;20290;-71
2022/11/14 10:25:19;;;;;;;;;;;;;;;-144.99;99.66;52505.16;5107221;28;19953;-71
2022/11/14 10:27:54;;;;;;;;;;;;;;;-144.99;99.29;52517.41;5096666;28;19962;-72
2022/11/14 10:30:35;;;;;;;;;;;;;;;-144.99;99.20;52509.25;5096814;28;20013;-71
2022/11/14 10:33:08;;;;;;;;;;;;;;;-144.99;99.88;52468.47;5106998;28;20028;-71
2022/11/14 10:35:36;;;;;;;;;;;;;;;-144.99;100.00;52513.31;5093237;28;19966;-71
2022/11/14 10:38:05;;;;;;;;;;;;;;;-144.99;99.41;52476.63;5104622;28;19990;-72
2022/11/14 10:40:38;;;;;;;;;;;;;;;-144.99;98.79;52480.72;5106951;28;19991;-72
2022/11/14 10:43:14;;;;;;;;;;;;;;;-144.99;98.93;52448.09;5104297;28;20023;-72
2022/11/14 10:45:44;;;;;;;;;;;;;;;-144.99;98.73;52492.94;5101744;28;20056;-72
2022/11/14 10:48:13;;;;;;;;;;;;;;;-144.99;98.08;52472.56;5097120;28;20008;-72
2022/11/14 10:50:43;;;;;;;;;;;;;;;-144.99;97.54;52448.09;5103808;28;20014;-72
2022/11/14 10:53:15;;;;;;;;;;;;;;;-144.99;97.86;52525.56;5105833;28;19951;-71
2022/11/14 10:55:41;;;;;;;;;;;;;;;-144.99;96.87;52456.25;5098508;28;21206;-71
2022/11/14 10:58:10;;;;;;;;;;;;;;;-144.99;96.82;52476.63;5105570;28;19942;-71
2022/11/14 11:00:36;;;;;;;;;;;;;;;-144.99;96.28;52480.72;5099554;28;20057;-70
2022/11/14 11:03:04;;;;;;;;;;;;;;;-144.99;95.19;52452.16;5090758;28;19994;-71
2022/11/14 11:05:31;;;;;;;;;;;;;;;-144.99;95.25;52452.16;5097241;28;19945;-71
2022/11/14 11:13:33;;;;;;;;;;;;;;;-144.99;92.29;52464.41;5111364;28;20356;-71
2022/11/14 11:16:01;;;;;;;;;;;;;;;-144.99;91.87;52448.09;5095936;28;19959;-71
2022/11/14 11:18:30;;;;;;;;;;;;;;;-144.99;91.11;52492.94;5098945;22;20318;-72
2022/11/14 11:21:05;;;;;;;;;;;;;;;-144.99;90.13;52468.47;5063052;28;19957;-71
2022/11/14 11:23:31;;;;;;;;;;;;;;;-144.99;89.73;52497.00;5060576;28;19950;-71
2022/11/14 11:26:04;;;;;;;;;;;;;;;-144.99;88.90;52437.91;5063610;28;19950;-73
2022/11/14 11:28:31;;;;;;;;;;;;;;;-144.99;88.07;52448.09;5060927;28;19944;-72
2022/11/14 11:30:59;;;;;;;;;;;;;;;-144.99;87.11;52419.56;5054744;28;19966;-72
2022/11/14 11:33:26;;;;;;;;;;;;;;;-144.99;83.19;52427.72;5058018;28;19972;-76
2022/11/14 11:35:56;;;;;;;;;;;;;;;-144.99;80.67;52427.72;5058695;28;20052;-73
2022/11/14 11:38:25;;;;;;;;;;;;;;;-144.99;79.13;52460.31;5063803;28;20014;-72
2022/11/14 11:40:54;;;;;;;;;;;;;;;-144.99;77.96;52415.47;5060208;28;20491;-72
2022/11/14 11:43:26;;;;;;;;;;;;;;;-144.99;76.40;52452.16;5059915;28;20393;-71
2022/11/14 11:45:54;;;;;;;;;;;;;;;-144.99;71.16;52342.09;5061530;28;20051;-72
2022/11/14 11:48:22;;;;;;;;;;;;;;;-144.99;65.07;52386.94;5062583;28;19944;-72
2022/11/14 11:50:49;;;;;;;;;;;;;;;-144.99;61.11;52311.53;5062711;28;20011;-71
2022/11/14 11:53:18;;;;;;;;;;;;;;;-144.99;59.04;52297.25;5059562;28;19985;-72
2022/11/14 11:55:47;;;;;;;;;;;;;;;-144.99;56.72;52223.88;5062404;28;19966;-73
2022/11/14 11:58:19;;;;;;;;;;;;;;;-144.99;55.24;52370.63;5061361;28;19952;-74
2022/11/14 12:00:45;;;;;;;;;;;;;;;-144.99;55.03;52340.06;5053617;28;19984;-72
2022/11/14 12:03:13;;;;;;;;;;;;;;;-144.99;53.33;52170.91;5062019;28;20030;-73
2022/11/14 12:05:45;;;;;;;;;;;;;;;-144.99;50.74;52187.19;5055048;28;20027;-72
2022/11/14 12:08:18;;;;;;;;;;;;;;;-144.99;49.24;52219.81;5057838;28;20042;-74
2022/11/14 12:10:46;;;;;;;;;;;;;;;-144.99;47.02;52154.59;5055011;28;19929;-73
2022/11/14 12:13:25;;;;;;;;;;;;;;;-144.99;46.17;52168.84;5056496;28;19969;-73
2022/11/14 12:15:58;;;;;;;;;;;;;;;-144.99;44.90;52166.81;5056023;28;19935;-72
2022/11/14 12:18:30;;;;;;;;;;;;;;;-144.99;43.09;52158.66;5058606;28;20376;-72
2022/11/14 12:21:05;;;;;;;;;;;;;;;-144.99;42.58;52183.13;5061196;28;19959;-72
2022/11/14 12:23:44;;;;;;;;;;;;;;;-144.99;43.19;52162.75;5063212;28;19951;-71
2022/11/14 12:26:29;;;;;;;;;;;;;;;-144.99;43.31;52187.19;5063718;28;20349;-71